Juan de Fuca Strait - east entrance: Past 24 Hour Conditions

 

South Brooks - 46132

06:00 AM PDT 21 October 2017Buoy position: 49.73N 127.92W
Disclaimer

This table is a summary of hourly weather conditions for the past 24 hours.
Please note that these observations might not always be representative of weather conditions over their associated marine area.

Date / Time
(PDT)
Wind(knots) Wave height(m) Wave period(s) Pressure(kPa) Air tempC) Water tempC)
21 October 2017
6:00 ESE 31 gust 37 3.8 8.0 99.8 10 10
5:00 ESE 29 gust 37 3.8 7.0 99.9 10 11
4:00 ESE 27 gust 37 3.5 13.0 100.0 10 11
3:00 SE 27 gust 39 3.4 14.0 100.1 10 11
2:00 ESE 21 gust 27 3.4 13.0 100.3 10 11
1:00 ESE 21 gust 27 3.2 13.0 100.4 11 11
0:00 SE 23 gust 29 3.4 14.0 100.4 10 11
20 October 2017
23:00 SE 19 N/A N/A N/A N/A N/A
22:00 SE 18 gust 21 3.9 14.0 100.6 11 11
21:00 SE 16 gust 19 3.8 14.0 100.7 11 11
20:00 SE 12 gust 16 3.7 13.0 100.7 11 11
19:00 ESE 10 gust 14 3.7 15.0 100.8 10 11
18:00 SSE 8 gust 12 3.8 15.0 100.8 10 11
17:00 S 6 gust 8 3.5 16.0 100.7 10 11
16:00 SSE 8 gust 14 3.9 14.0 100.7 9 11
15:00 WSW 8 gust 12 3.9 13.0 100.7 11 11
14:00 S 2 gust 4 4.0 14.0 100.7 11 11
13:00 W 6 gust 8 3.9 14.0 100.7 10 11
12:00 WNW 8 gust 12 4.2 15.0 100.6 11 11
11:00 WNW 6 gust 10 4.5 14.0 100.5 10 11
10:00 NW 8 gust 12 5.1 14.0 100.4 10 11
9:00 WNW 12 gust 19 5.6 14.0 100.4 11 11
8:00 WNW 8 gust 14 6.0 14.0 100.3 10 11
7:00 NW 14 gust 18 5.1 14.0 100.2 10 11
6:00 NW 16 gust 19 5.3 14.0 100.1 10 11

Zoom-in to make a selection

Map of Pacific - South Coast marine weather areas Tsawwassen Ferry Terminal South Nomad - 46036 Sentry Shoal - 46131 South Brooks - 46132 Halibut Bank - 46146 South Moresby - 46147 South Hecate Strait - 46185 West Sea Otter - 46204 La Perouse Bank - 46206 East Dellwood - 46207 Discovery Island Esquimalt Harbour Kelp Reefs Malahat Race Rocks Lightstation Saturna Island Sheringham Point University of Victoria Victoria Gonzales Victoria Int'l Airport Ballenas Islands Campbell River Airport Comox Airport Entrance Island Fanny Island Nanaimo Airport Port Hardy Airport Sisters Islets Estevan Point Sartine Island Solander Island Tofino Airport Grief Point Powell River Airport Sechelt Cape St.James Bella Bella Airport Bella Coola Airport Cathedral Point Herbert Island Point Atkinson Sand Heads Lightstation Vancouver Harbour Vancouver Int'l Airport West Vancouver Port Alberni Howe Sound - Pam Rocks Squamish Airport
Legend:
buoy Buoy
land station Land Station

Pacific - South Coast Area

Another Region

What we are doing

Features

Summer 2017: Significant weather across Canada

By analyzing weather events, ECCC is collecting more information as to how our climate is changing.

Date modified: